createdAt,value
2017-12-11T05:00:41.787Z,979.36
2017-12-11T05:01:07.276Z,979.4
2017-12-11T05:01:32.840Z,979.4
2017-12-11T05:01:58.330Z,979.38
2017-12-11T05:02:23.844Z,979.33
2017-12-11T05:02:49.322Z,979.36
2017-12-11T05:03:14.818Z,979.39
2017-12-11T05:03:40.289Z,979.42
2017-12-11T05:04:05.771Z,979.39
2017-12-11T05:04:31.297Z,979.43
2017-12-11T05:04:56.800Z,979.44
2017-12-11T05:05:22.284Z,979.43
2017-12-11T05:05:47.804Z,979.42
2017-12-11T05:06:13.287Z,979.42
2017-12-11T05:06:38.770Z,979.45
2017-12-11T05:07:04.284Z,979.49
2017-12-11T05:07:29.755Z,979.46
2017-12-11T05:07:55.261Z,979.43
2017-12-11T05:08:20.767Z,979.49
2017-12-11T05:08:46.271Z,979.48
2017-12-11T05:09:11.743Z,979.47
2017-12-11T05:09:37.204Z,979.48
2017-12-11T05:10:02.728Z,979.47
2017-12-11T05:10:28.221Z,979.48
2017-12-11T05:10:53.758Z,979.47
2017-12-11T05:11:19.259Z,979.41
2017-12-11T05:11:44.754Z,979.5
2017-12-11T05:12:10.257Z,979.46
2017-12-11T05:12:35.728Z,979.44
2017-12-11T05:13:49.485Z,979.41
2017-12-11T05:14:14.983Z,979.38
2017-12-11T05:14:40.488Z,979.38
2017-12-11T05:15:05.969Z,979.41
2017-12-11T05:15:31.537Z,979.38
2017-12-11T05:15:56.937Z,979.38
2017-12-11T05:16:22.395Z,979.37
2017-12-11T05:16:47.897Z,979.31
2017-12-11T05:17:13.362Z,979.34
2017-12-11T05:17:38.890Z,979.36
2017-12-11T05:18:04.354Z,979.35
2017-12-11T05:18:29.803Z,979.37
2017-12-11T05:18:55.300Z,979.34
2017-12-11T05:19:20.783Z,979.37
2017-12-11T05:19:46.245Z,979.42
2017-12-11T05:20:11.735Z,979.43
2017-12-11T05:20:37.199Z,979.42
2017-12-11T05:21:02.668Z,979.38
2017-12-11T05:21:28.173Z,979.33
2017-12-11T05:21:53.660Z,979.32
2017-12-11T05:22:19.194Z,979.35
2017-12-11T05:22:44.620Z,979.35
2017-12-11T05:23:10.098Z,979.36
2017-12-11T05:23:35.618Z,979.33
2017-12-11T05:24:01.107Z,979.28
2017-12-11T05:24:26.743Z,979.29
2017-12-11T05:24:52.175Z,979.31
2017-12-11T05:25:17.629Z,979.31
2017-12-11T05:25:43.158Z,979.3
2017-12-11T05:26:08.606Z,979.33
2017-12-11T05:26:34.128Z,979.33
2017-12-11T05:26:59.658Z,979.37
2017-12-11T05:27:25.120Z,979.39
2017-12-11T05:27:50.602Z,979.36
2017-12-11T05:28:16.120Z,979.37
2017-12-11T05:28:41.609Z,979.37
2017-12-11T05:29:07.150Z,979.31
2017-12-11T05:29:32.692Z,979.32
2017-12-11T05:29:58.170Z,979.34
2017-12-11T05:30:23.646Z,979.32
2017-12-11T05:30:49.139Z,979.34
2017-12-11T05:31:14.578Z,979.29
2017-12-11T05:31:40.125Z,979.3
2017-12-11T05:32:05.634Z,979.29
2017-12-11T05:32:31.132Z,979.28
2017-12-11T05:32:56.615Z,979.26
2017-12-11T05:33:22.116Z,979.29
2017-12-11T05:33:47.635Z,979.27
2017-12-11T05:34:13.153Z,979.28
2017-12-11T05:34:38.605Z,979.3
2017-12-11T05:35:04.072Z,979.28
2017-12-11T05:35:29.567Z,979.25
2017-12-11T05:35:55.009Z,979.25
2017-12-11T05:36:20.519Z,979.26
2017-12-11T05:36:46.001Z,979.24
2017-12-11T05:37:11.510Z,979.24
2017-12-11T05:37:37.059Z,979.23
2017-12-11T05:38:02.519Z,979.21
2017-12-11T05:38:28.034Z,979.25
2017-12-11T05:38:53.469Z,979.24
2017-12-11T05:39:18.952Z,979.26
2017-12-11T05:39:44.435Z,979.31
2017-12-11T05:40:09.930Z,979.32
2017-12-11T05:40:35.376Z,979.3
2017-12-11T05:41:00.830Z,979.32
2017-12-11T05:41:26.352Z,979.33
2017-12-11T05:41:51.780Z,979.38
2017-12-11T05:42:17.269Z,979.37
2017-12-11T05:42:42.744Z,979.39
2017-12-11T05:43:08.203Z,979.38
2017-12-11T05:43:33.668Z,979.39
2017-12-11T05:43:59.146Z,979.36
2017-12-11T05:44:24.622Z,979.33
2017-12-11T05:44:50.049Z,979.42
2017-12-11T05:45:15.618Z,979.35
2017-12-11T05:45:41.048Z,979.42
2017-12-11T05:46:06.522Z,979.34
2017-12-11T05:46:32.036Z,979.35
2017-12-11T05:46:57.541Z,979.36
2017-12-11T05:47:22.991Z,979.33
2017-12-11T05:47:48.477Z,979.36
2017-12-11T05:48:13.985Z,979.37
2017-12-11T05:48:39.528Z,979.34
2017-12-11T05:49:04.975Z,979.4
2017-12-11T05:49:30.464Z,979.39
2017-12-11T05:49:55.898Z,979.41
2017-12-11T05:50:21.398Z,979.42
2017-12-11T05:50:46.861Z,979.46
2017-12-11T05:51:12.314Z,979.4
2017-12-11T05:51:37.809Z,979.4
2017-12-11T05:52:03.271Z,979.35
2017-12-11T05:52:28.797Z,979.37
2017-12-11T05:52:54.265Z,979.33
2017-12-11T05:53:19.766Z,979.29
2017-12-11T05:53:45.241Z,979.26
2017-12-11T05:54:10.695Z,979.22
2017-12-11T05:54:36.234Z,979.23
2017-12-11T05:55:01.725Z,979.22
2017-12-11T05:55:27.220Z,979.19
2017-12-11T05:55:52.670Z,979.16
2017-12-11T05:56:18.207Z,979.14
2017-12-11T05:56:43.679Z,979.1
2017-12-11T05:57:09.144Z,979.13
2017-12-11T05:57:34.627Z,979.11
2017-12-11T05:58:00.070Z,979.1
2017-12-11T05:58:25.669Z,979.12
2017-12-11T05:58:51.149Z,979.11
2017-12-11T05:59:16.662Z,979.1
2017-12-11T05:59:42.199Z,979.1
2017-12-11T06:00:07.609Z,979.16
2017-12-11T06:00:33.098Z,979.12
2017-12-11T06:00:58.607Z,979.1
2017-12-11T06:01:24.111Z,979.09
2017-12-11T06:01:49.575Z,979.08
2017-12-11T06:02:15.052Z,979.01
2017-12-11T06:02:40.526Z,979
2017-12-11T06:03:05.988Z,978.97
2017-12-11T06:03:31.474Z,978.94
2017-12-11T06:03:56.923Z,978.93
2017-12-11T06:04:22.386Z,978.88
2017-12-11T06:04:47.833Z,978.89
2017-12-11T06:05:13.311Z,978.91
2017-12-11T06:05:38.757Z,978.87
2017-12-11T06:06:04.328Z,978.87
2017-12-11T06:06:29.702Z,978.89
2017-12-11T06:06:55.176Z,978.84
2017-12-11T06:07:20.647Z,978.89
2017-12-11T06:07:46.107Z,978.88
2017-12-11T06:08:11.685Z,978.84
2017-12-11T06:08:37.053Z,978.83
2017-12-11T06:09:02.506Z,978.85
2017-12-11T06:09:27.994Z,978.8
2017-12-11T06:09:53.475Z,978.83
2017-12-11T06:10:18.936Z,978.83
2017-12-11T06:10:44.404Z,978.8
2017-12-11T06:11:09.880Z,978.72
2017-12-11T06:11:35.350Z,978.68
2017-12-11T06:12:00.884Z,978.71
2017-12-11T06:12:26.469Z,978.65
2017-12-11T06:12:51.913Z,978.66
2017-12-11T06:13:17.361Z,978.69
2017-12-11T06:13:42.843Z,978.68
2017-12-11T06:14:08.310Z,978.68
2017-12-11T06:14:33.747Z,978.66
2017-12-11T06:14:59.228Z,978.63
2017-12-11T06:15:24.693Z,978.6
2017-12-11T06:15:50.205Z,978.68
2017-12-11T06:16:15.645Z,978.61
2017-12-11T06:16:41.127Z,978.6
2017-12-11T06:17:06.597Z,978.63
2017-12-11T06:17:32.103Z,978.58
2017-12-11T06:17:57.544Z,978.61
2017-12-11T06:18:23.016Z,978.6
2017-12-11T06:18:48.519Z,978.55
2017-12-11T06:19:14.009Z,978.59
2017-12-11T06:19:39.497Z,978.51
2017-12-11T06:20:04.965Z,978.54
2017-12-11T06:20:30.487Z,978.51
2017-12-11T06:20:55.882Z,978.53
2017-12-11T06:21:21.379Z,978.46
2017-12-11T06:21:46.827Z,978.45
2017-12-11T06:22:12.273Z,978.46
2017-12-11T06:22:37.790Z,978.44
2017-12-11T06:23:03.291Z,978.44
2017-12-11T06:23:28.778Z,978.42
2017-12-11T06:23:54.311Z,978.43
2017-12-11T06:24:19.699Z,978.49
2017-12-11T06:24:45.139Z,978.47
2017-12-11T06:25:10.688Z,978.5
2017-12-11T06:25:36.139Z,978.52
2017-12-11T06:26:01.654Z,978.54
2017-12-11T06:26:27.077Z,978.54
2017-12-11T06:26:52.628Z,978.56
2017-12-11T06:27:18.089Z,978.6
2017-12-11T06:27:43.561Z,978.57
2017-12-11T06:28:09.231Z,978.55
2017-12-11T06:28:34.766Z,978.52
2017-12-11T06:29:38.361Z,978.53
2017-12-11T06:30:03.839Z,978.49
2017-12-11T06:30:29.346Z,978.48
2017-12-11T06:30:54.769Z,978.48
2017-12-11T06:31:20.284Z,978.5
2017-12-11T06:31:45.726Z,978.47
2017-12-11T06:32:44.229Z,978.48
2017-12-11T06:33:09.726Z,978.52
2017-12-11T06:33:35.224Z,978.49
2017-12-11T06:34:00.724Z,978.5
2017-12-11T06:34:26.213Z,978.52
2017-12-11T06:34:51.666Z,978.5
2017-12-11T06:35:17.182Z,978.51
2017-12-11T06:35:42.580Z,978.5
2017-12-11T06:36:08.080Z,978.45
2017-12-11T06:36:33.589Z,978.49
2017-12-11T06:36:59.071Z,978.51
2017-12-11T06:37:24.604Z,978.43
2017-12-11T06:38:33.294Z,978.39
2017-12-11T06:38:58.785Z,978.4
2017-12-11T06:39:24.252Z,978.39
2017-12-11T06:39:49.748Z,978.34
2017-12-11T06:40:15.248Z,978.37
2017-12-11T06:40:40.794Z,978.43
2017-12-11T06:41:06.247Z,978.37
2017-12-11T06:42:25.153Z,978.33
2017-12-11T06:42:50.667Z,978.37
2017-12-11T06:43:16.123Z,978.33
2017-12-11T06:43:41.584Z,978.36
2017-12-11T06:44:07.034Z,978.33
2017-12-11T06:44:32.497Z,978.35
2017-12-11T06:44:57.958Z,978.37
2017-12-11T06:45:23.433Z,978.42
2017-12-11T06:45:48.913Z,978.39
2017-12-11T06:46:14.400Z,978.41
2017-12-11T06:46:39.862Z,978.44
2017-12-11T06:47:43.476Z,978.45
2017-12-11T06:48:08.972Z,978.52
2017-12-11T06:48:34.443Z,978.49
2017-12-11T06:48:59.903Z,978.51
2017-12-11T06:49:25.375Z,978.52
2017-12-11T06:49:50.823Z,978.52
2017-12-11T06:50:16.279Z,978.55
2017-12-11T06:50:41.770Z,978.58
2017-12-11T06:51:07.232Z,978.59
2017-12-11T06:51:32.722Z,978.65
2017-12-11T06:51:58.148Z,978.69
2017-12-11T06:52:23.615Z,978.74
2017-12-11T06:53:38.244Z,978.83
2017-12-11T06:54:03.718Z,978.83
2017-12-11T06:54:29.179Z,978.89
2017-12-11T06:54:54.665Z,978.91
2017-12-11T06:55:20.166Z,978.92
2017-12-11T06:55:45.636Z,978.88
2017-12-11T06:56:11.095Z,978.97
2017-12-11T06:56:36.609Z,978.96
2017-12-11T06:57:02.151Z,979
2017-12-11T06:57:27.638Z,978.98
2017-12-11T06:57:53.104Z,978.97
2017-12-11T06:58:18.700Z,979
2017-12-11T06:58:44.185Z,979.02
2017-12-11T06:59:09.684Z,979.02
2017-12-11T06:59:35.151Z,979.02
2017-12-11T07:00:00.678Z,979.11
2017-12-11T07:00:26.134Z,979.04
2017-12-11T07:00:51.611Z,979.03
2017-12-11T07:01:17.081Z,979.01
2017-12-11T07:01:42.543Z,979.01
2017-12-11T07:02:46.168Z,978.95
2017-12-11T07:03:11.663Z,978.97
2017-12-11T07:03:37.149Z,978.97
2017-12-11T07:04:02.798Z,978.97
2017-12-11T07:04:28.339Z,978.96
2017-12-11T07:04:53.850Z,978.99
2017-12-11T07:05:19.358Z,978.97
2017-12-11T07:05:44.831Z,979.03
2017-12-11T07:06:59.063Z,979.03
2017-12-11T07:07:24.614Z,979.03
2017-12-11T07:07:50.185Z,979.02
2017-12-11T07:09:09.346Z,979.03
2017-12-11T07:09:34.906Z,979.06
2017-12-11T07:10:00.449Z,979.04
2017-12-11T07:10:26.243Z,979.06
2017-12-11T07:10:51.757Z,979.1
2017-12-11T07:11:17.208Z,979.07
2017-12-11T07:11:42.812Z,979.08
2017-12-11T07:12:08.320Z,979.05
2017-12-11T07:12:33.804Z,979.04
2017-12-11T07:12:59.254Z,979.06
2017-12-11T07:13:24.738Z,979.04
2017-12-11T07:13:50.260Z,979.07
2017-12-11T07:14:15.721Z,979.05
2017-12-11T07:14:41.183Z,979.03
2017-12-11T07:15:06.673Z,979
2017-12-11T07:15:32.165Z,979.05
2017-12-11T07:15:57.665Z,978.99
2017-12-11T07:16:23.119Z,979.03
2017-12-11T07:16:48.612Z,979.02
2017-12-11T07:17:14.101Z,979.04
2017-12-11T07:17:39.559Z,979.04
2017-12-11T07:18:05.050Z,979.03
2017-12-11T07:18:30.509Z,979.11
2017-12-11T07:18:56.035Z,979.08
2017-12-11T07:19:21.579Z,979.09
2017-12-11T07:19:47.092Z,979.1
2017-12-11T07:20:12.590Z,979.1
2017-12-11T07:20:38.096Z,979.16
2017-12-11T07:21:03.555Z,979.12
2017-12-11T07:21:29.075Z,979.2
2017-12-11T07:21:54.572Z,979.22
2017-12-11T07:22:20.095Z,979.2
2017-12-11T07:22:45.552Z,979.23
2017-12-11T07:23:11.011Z,979.2
2017-12-11T07:23:36.509Z,979.25
2017-12-11T07:24:01.969Z,979.23
2017-12-11T07:24:27.423Z,979.29
2017-12-11T07:24:52.873Z,979.27
2017-12-11T07:25:18.360Z,979.31
2017-12-11T07:25:43.834Z,979.34
2017-12-11T07:26:09.356Z,979.37
2017-12-11T07:26:34.852Z,979.38
2017-12-11T07:27:00.310Z,979.42
2017-12-11T07:27:25.780Z,979.47
2017-12-11T07:28:34.738Z,979.53
2017-12-11T07:29:00.209Z,979.57
2017-12-11T07:29:59.702Z,979.63
2017-12-11T07:30:25.262Z,979.61
2017-12-11T07:30:50.745Z,979.65
2017-12-11T07:31:55.353Z,979.65
2017-12-11T07:32:20.851Z,979.63
2017-12-11T07:32:46.339Z,979.62
2017-12-11T07:33:11.843Z,979.62
2017-12-11T07:33:37.333Z,979.6
2017-12-11T07:34:02.813Z,979.58
2017-12-11T07:34:28.335Z,979.5
2017-12-11T07:34:53.889Z,979.49
2017-12-11T07:35:19.364Z,979.42
2017-12-11T07:35:44.822Z,979.45
2017-12-11T07:36:10.340Z,979.4
2017-12-11T07:36:35.846Z,979.39
2017-12-11T07:37:44.558Z,979.27
2017-12-11T07:38:10.053Z,979.25
2017-12-11T07:38:35.564Z,979.21
2017-12-11T07:39:01.099Z,979.2
2017-12-11T07:39:26.585Z,979.21
2017-12-11T07:39:52.061Z,979.23
2017-12-11T07:40:17.538Z,979.22
2017-12-11T07:40:43.049Z,979.23
2017-12-11T07:41:08.498Z,979.22
2017-12-11T07:42:07.010Z,979.23
2017-12-11T07:42:32.501Z,979.23
2017-12-11T07:42:57.981Z,979.29
2017-12-11T07:43:23.471Z,979.21
2017-12-11T07:43:48.952Z,979.19
2017-12-11T07:44:14.471Z,979.19
2017-12-11T07:44:39.942Z,979.18
2017-12-11T07:45:05.431Z,979.15
2017-12-11T07:45:30.900Z,979.1
2017-12-11T07:45:56.479Z,979.08
2017-12-11T07:46:21.903Z,979.14
2017-12-11T07:46:47.401Z,979.13
2017-12-11T07:47:12.914Z,979.15
2017-12-11T07:47:38.391Z,979.12
2017-12-11T07:48:03.872Z,979.16
2017-12-11T07:48:29.418Z,979.23
2017-12-11T07:48:54.889Z,979.17
2017-12-11T07:49:20.433Z,979.25
2017-12-11T07:49:45.938Z,979.28
2017-12-11T07:50:59.752Z,979.2
2017-12-11T07:51:25.242Z,979.18
2017-12-11T07:51:50.774Z,979.16
2017-12-11T07:52:16.259Z,979.15
2017-12-11T07:52:41.745Z,979.11
2017-12-11T07:53:07.256Z,979.1
2017-12-11T07:53:32.739Z,979.18
2017-12-11T07:53:58.194Z,979.19
2017-12-11T07:54:23.643Z,979.25
2017-12-11T07:54:49.168Z,979.22
2017-12-11T07:55:14.740Z,979.24
2017-12-11T07:56:18.354Z,979.27
2017-12-11T07:56:43.848Z,979.25
2017-12-11T07:57:09.327Z,979.24
2017-12-11T07:57:34.789Z,979.22
2017-12-11T07:58:00.302Z,979.19
2017-12-11T07:58:25.838Z,979.22
2017-12-11T07:58:51.315Z,979.17
2017-12-11T07:59:16.797Z,979.19
2017-12-11T07:59:42.249Z,979.14
2017-12-11T08:00:07.715Z,979.12
2017-12-11T08:00:33.247Z,979.11
2017-12-11T08:00:58.816Z,979.1
2017-12-11T08:01:24.285Z,979.12
2017-12-11T08:01:49.746Z,979.04
2017-12-11T08:02:15.262Z,979.11
2017-12-11T08:02:40.758Z,979.09
2017-12-11T08:03:06.278Z,979.06
2017-12-11T08:03:31.821Z,979.04
2017-12-11T08:03:57.386Z,979.06
2017-12-11T08:04:22.997Z,979.07
2017-12-11T08:04:48.484Z,979.07
2017-12-11T08:05:13.975Z,979.02
2017-12-11T08:05:39.464Z,979.02
2017-12-11T08:06:04.992Z,979.05
2017-12-11T08:06:30.465Z,978.98
2017-12-11T08:06:55.972Z,978.97
2017-12-11T08:07:21.464Z,978.97
2017-12-11T08:07:46.907Z,978.91
2017-12-11T08:08:12.433Z,978.93
2017-12-11T08:08:37.953Z,978.92
2017-12-11T08:09:03.472Z,978.91
2017-12-11T08:09:28.870Z,978.98
2017-12-11T08:09:54.379Z,978.89
2017-12-11T08:10:19.875Z,978.92
2017-12-11T08:10:45.353Z,978.89
2017-12-11T08:11:10.891Z,978.89
2017-12-11T08:11:36.378Z,978.96
2017-12-11T08:12:01.867Z,978.91
2017-12-11T08:12:27.367Z,978.97
2017-12-11T08:12:52.867Z,978.91
2017-12-11T08:13:18.309Z,978.93
2017-12-11T08:14:16.833Z,978.91
2017-12-11T08:14:42.328Z,978.98
2017-12-11T08:15:07.875Z,979.01
2017-12-11T08:15:33.376Z,978.96
2017-12-11T08:15:58.910Z,978.91
2017-12-11T08:16:24.409Z,978.95
2017-12-11T08:16:49.939Z,978.96
2017-12-11T08:17:15.453Z,978.95
2017-12-11T08:17:40.915Z,978.91
2017-12-11T08:18:06.465Z,978.94
2017-12-11T08:18:31.957Z,978.9
2017-12-11T08:18:57.428Z,978.91
2017-12-11T08:19:22.922Z,978.94
2017-12-11T08:19:48.417Z,978.93
2017-12-11T08:20:13.905Z,978.95
2017-12-11T08:20:39.403Z,978.94
2017-12-11T08:21:04.878Z,978.96
2017-12-11T08:21:30.363Z,979.04
2017-12-11T08:21:55.946Z,978.94
2017-12-11T08:22:21.376Z,979
2017-12-11T08:22:46.895Z,979.04
2017-12-11T08:23:12.385Z,978.97
2017-12-11T08:23:37.874Z,978.99
2017-12-11T08:24:03.374Z,979.03
2017-12-11T08:24:28.855Z,978.99
2017-12-11T08:25:42.628Z,979.1
2017-12-11T08:26:08.100Z,979.06
2017-12-11T08:27:21.952Z,979.13
2017-12-11T08:27:47.434Z,979.14
2017-12-11T08:28:12.926Z,979.13
2017-12-11T08:28:38.422Z,979.18
2017-12-11T08:29:03.936Z,979.2
2017-12-11T08:30:17.744Z,979.22
2017-12-11T08:30:43.204Z,979.23
2017-12-11T08:31:08.714Z,979.2
2017-12-11T08:31:34.210Z,979.09
2017-12-11T08:31:59.700Z,979.14
2017-12-11T08:32:25.196Z,979.06
2017-12-11T08:32:50.686Z,979.01
2017-12-11T08:33:16.130Z,979.02
2017-12-11T08:34:24.846Z,978.99
2017-12-11T08:34:50.332Z,978.96
2017-12-11T08:35:15.803Z,978.94
2017-12-11T08:35:41.300Z,978.94
2017-12-11T08:36:06.796Z,978.96
2017-12-11T08:36:32.298Z,978.97
2017-12-11T08:36:57.812Z,978.96
2017-12-11T08:37:23.318Z,978.91
2017-12-11T08:37:48.782Z,978.99
2017-12-11T08:38:14.248Z,979.01
2017-12-11T08:38:39.755Z,978.99
2017-12-11T08:39:05.209Z,978.98
2017-12-11T08:39:30.790Z,979
2017-12-11T08:39:56.239Z,979.07
2017-12-11T08:40:21.680Z,978.98
2017-12-11T08:40:47.236Z,979
2017-12-11T08:41:12.662Z,979.01
2017-12-11T08:42:32.564Z,979.12
2017-12-11T08:42:58.056Z,979.1
2017-12-11T08:43:23.545Z,979.13
2017-12-11T08:43:49.042Z,979.15
2017-12-11T08:44:14.512Z,979.06
2017-12-11T08:44:40.044Z,979.05
2017-12-11T08:45:05.522Z,979.07
2017-12-11T08:45:30.996Z,979.04
2017-12-11T08:45:56.493Z,979.02
2017-12-11T08:46:21.992Z,978.98
2017-12-11T08:46:47.472Z,979.02
2017-12-11T08:47:12.945Z,979.02
2017-12-11T08:47:38.416Z,979.07
2017-12-11T08:48:03.974Z,979.12
2017-12-11T08:48:29.500Z,979.11
2017-12-11T08:48:54.950Z,979.13
2017-12-11T08:49:20.436Z,979.19
2017-12-11T08:49:46.012Z,979.13
2017-12-11T08:50:11.500Z,979.1
2017-12-11T08:50:36.973Z,979.04
2017-12-11T08:51:02.560Z,979.02
2017-12-11T08:51:28.067Z,979.03
2017-12-11T08:51:53.540Z,978.99
2017-12-11T08:52:19.021Z,978.95
2017-12-11T08:52:44.525Z,978.97
2017-12-11T08:53:10.098Z,979.02
2017-12-11T08:53:35.654Z,978.98
2017-12-11T08:54:01.099Z,978.98
2017-12-11T08:54:26.578Z,978.94
2017-12-11T08:54:52.108Z,978.96
2017-12-11T08:55:17.567Z,978.93
2017-12-11T08:55:43.087Z,978.91
2017-12-11T08:56:08.585Z,978.95
2017-12-11T08:56:34.122Z,978.87
2017-12-11T08:56:59.633Z,978.97
2017-12-11T08:57:25.157Z,978.95
2017-12-11T08:57:50.669Z,978.93
2017-12-11T08:58:16.165Z,978.85
2017-12-11T08:58:41.630Z,978.82
2017-12-11T08:59:07.179Z,978.87
2017-12-11T08:59:32.695Z,978.83
2017-12-11T08:59:58.165Z,978.82
2017-12-11T09:00:23.769Z,978.85
2017-12-11T09:00:49.268Z,978.92
2017-12-11T09:01:14.818Z,978.89
2017-12-11T09:01:40.365Z,978.89
2017-12-11T09:02:05.943Z,978.94
2017-12-11T09:02:31.425Z,978.96
2017-12-11T09:02:56.954Z,978.95
2017-12-11T09:03:22.451Z,978.99
2017-12-11T09:03:47.966Z,978.98
2017-12-11T09:04:13.460Z,978.99
2017-12-11T09:04:39.043Z,979
2017-12-11T09:05:04.521Z,979.08
2017-12-11T09:05:30.036Z,979.02
2017-12-11T09:05:55.484Z,979.03
2017-12-11T09:06:21.006Z,979.06
2017-12-11T09:06:46.657Z,979.02
2017-12-11T09:07:12.170Z,979.03
2017-12-11T09:07:37.761Z,979
2017-12-11T09:08:03.333Z,978.99
2017-12-11T09:08:28.844Z,979.02
2017-12-11T09:08:54.340Z,979.04
2017-12-11T09:09:19.812Z,978.99
2017-12-11T09:09:45.281Z,978.99
2017-12-11T09:10:10.808Z,979.05
2017-12-11T09:10:36.333Z,979.02
2017-12-11T09:11:01.810Z,979.03
2017-12-11T09:11:27.288Z,979.03
2017-12-11T09:11:52.782Z,979.04
2017-12-11T09:12:18.278Z,979.02
2017-12-11T09:12:43.716Z,979.01
2017-12-11T09:13:09.219Z,979.03
2017-12-11T09:13:34.708Z,979.05
2017-12-11T09:14:00.263Z,979.05
2017-12-11T09:14:25.726Z,979.08
2017-12-11T09:14:51.207Z,979.08
2017-12-11T09:15:16.692Z,979.09
2017-12-11T09:16:15.228Z,979.04
2017-12-11T09:16:40.689Z,979.03
2017-12-11T09:17:06.178Z,979.07
2017-12-11T09:17:31.652Z,979.04
2017-12-11T09:17:57.151Z,979.05
2017-12-11T09:18:22.645Z,979.01
2017-12-11T09:18:48.116Z,978.98
2017-12-11T09:19:13.631Z,978.96
2017-12-11T09:19:39.157Z,979.01
2017-12-11T09:20:04.674Z,978.96
2017-12-11T09:20:30.149Z,978.99
2017-12-11T09:20:55.646Z,978.99
2017-12-11T09:21:21.194Z,978.98
2017-12-11T09:21:46.660Z,978.98
2017-12-11T09:22:12.162Z,979.02
2017-12-11T09:22:37.670Z,978.96
2017-12-11T09:23:03.193Z,978.99
2017-12-11T09:23:28.653Z,978.97
2017-12-11T09:23:54.170Z,978.92
2017-12-11T09:24:19.632Z,978.93
2017-12-11T09:24:45.144Z,978.91
2017-12-11T09:25:10.694Z,978.88
2017-12-11T09:25:36.255Z,978.9
2017-12-11T09:26:01.726Z,978.88
2017-12-11T09:26:27.215Z,978.88
2017-12-11T09:26:52.671Z,978.84
2017-12-11T09:27:18.172Z,978.83
2017-12-11T09:27:43.639Z,978.84
2017-12-11T09:28:47.250Z,978.86
2017-12-11T09:29:12.745Z,978.83
2017-12-11T09:29:38.212Z,978.85
2017-12-11T09:30:03.684Z,978.88
2017-12-11T09:30:29.150Z,978.89
2017-12-11T09:30:54.707Z,978.85
2017-12-11T09:31:20.167Z,978.82
2017-12-11T09:31:45.691Z,978.89
2017-12-11T09:32:11.192Z,978.82
2017-12-11T09:32:36.710Z,978.84
2017-12-11T09:33:02.169Z,978.92
2017-12-11T09:33:27.680Z,978.89
2017-12-11T09:33:53.177Z,978.87
2017-12-11T09:34:18.675Z,978.88
2017-12-11T09:34:44.191Z,978.87
2017-12-11T09:35:09.633Z,978.88
2017-12-11T09:35:35.105Z,978.82
2017-12-11T09:36:00.607Z,978.8
2017-12-11T09:36:26.106Z,978.72
2017-12-11T09:36:51.572Z,978.7
2017-12-11T09:38:05.357Z,978.69
2017-12-11T09:38:30.906Z,978.69
2017-12-11T09:38:56.415Z,978.65
2017-12-11T09:39:21.953Z,978.64
2017-12-11T09:39:47.463Z,978.61
2017-12-11T09:40:12.925Z,978.65
2017-12-11T09:40:38.420Z,978.61
2017-12-11T09:41:03.908Z,978.66
2017-12-11T09:41:29.435Z,978.62
2017-12-11T09:41:54.943Z,978.66
2017-12-11T09:42:20.418Z,978.66
2017-12-11T09:42:45.918Z,978.73
2017-12-11T09:43:11.441Z,978.74
2017-12-11T09:43:36.950Z,978.65
2017-12-11T09:44:02.401Z,978.73
2017-12-11T09:44:27.911Z,978.7
2017-12-11T09:44:53.435Z,978.68
2017-12-11T09:45:18.913Z,978.7
2017-12-11T09:45:44.382Z,978.67
2017-12-11T09:46:09.894Z,978.66
2017-12-11T09:46:35.389Z,978.67
2017-12-11T09:47:00.897Z,978.72
2017-12-11T09:47:26.383Z,978.66
2017-12-11T09:47:51.885Z,978.69
2017-12-11T09:48:17.365Z,978.72
2017-12-11T09:48:42.879Z,978.69
2017-12-11T09:50:01.769Z,978.74
2017-12-11T09:50:27.275Z,978.74
2017-12-11T09:50:52.759Z,978.77
2017-12-11T09:51:18.275Z,978.79
2017-12-11T09:51:43.761Z,978.83
2017-12-11T09:52:09.231Z,978.84
2017-12-11T09:52:34.761Z,978.81
2017-12-11T09:53:00.259Z,978.84
2017-12-11T09:53:25.752Z,978.78
2017-12-11T09:53:51.235Z,978.71
2017-12-11T09:54:16.685Z,978.68
2017-12-11T09:54:42.161Z,978.59
2017-12-11T09:55:07.665Z,978.55
2017-12-11T09:55:33.158Z,978.57
2017-12-11T09:55:58.628Z,978.46
2017-12-11T09:56:24.103Z,978.41
2017-12-11T09:56:49.597Z,978.43
2017-12-11T09:57:15.074Z,978.48
2017-12-11T09:57:40.618Z,978.47
2017-12-11T09:58:06.049Z,978.54
2017-12-11T09:58:31.559Z,978.57
2017-12-11T09:58:57.068Z,978.58
2017-12-11T09:59:22.556Z,978.62
2017-12-11T09:59:48.053Z,978.6
2017-12-11T10:00:13.562Z,978.61
2017-12-11T10:00:39.072Z,978.67
2017-12-11T10:01:04.538Z,978.62
2017-12-11T10:01:30.018Z,978.66
2017-12-11T10:01:55.585Z,978.62
2017-12-11T10:02:21.004Z,978.63
2017-12-11T10:02:46.495Z,978.61
2017-12-11T10:03:12.046Z,978.54
2017-12-11T10:03:37.569Z,978.5
2017-12-11T10:04:03.103Z,978.48
2017-12-11T10:04:28.634Z,978.42
2017-12-11T10:05:37.898Z,978.33
2017-12-11T10:06:03.401Z,978.33
2017-12-11T10:06:28.859Z,978.37
2017-12-11T10:06:54.318Z,978.42
2017-12-11T10:07:19.787Z,978.42
2017-12-11T10:07:45.291Z,978.48
2017-12-11T10:08:10.809Z,978.45
2017-12-11T10:08:36.369Z,978.44
2017-12-11T10:09:01.859Z,978.45
2017-12-11T10:09:27.424Z,978.46
2017-12-11T10:10:41.227Z,978.36
2017-12-11T10:11:06.728Z,978.33
2017-12-11T10:11:32.199Z,978.33
2017-12-11T10:11:57.740Z,978.34
2017-12-11T10:12:23.169Z,978.4
2017-12-11T10:12:48.666Z,978.49
2017-12-11T10:13:14.157Z,978.54
2017-12-11T10:13:39.641Z,978.6
2017-12-11T10:14:05.189Z,978.6
2017-12-11T10:14:30.712Z,978.69
2017-12-11T10:14:56.187Z,978.69
2017-12-11T10:15:21.686Z,978.65
2017-12-11T10:15:47.170Z,978.64
2017-12-11T10:16:12.659Z,978.6
2017-12-11T10:16:38.187Z,978.58
2017-12-11T10:17:03.748Z,978.57
2017-12-11T10:17:29.248Z,978.56
2017-12-11T10:17:54.770Z,978.51
2017-12-11T10:18:20.271Z,978.5
2017-12-11T10:18:45.756Z,978.46
2017-12-11T10:19:11.235Z,978.47
2017-12-11T10:19:36.759Z,978.42
2017-12-11T10:20:02.244Z,978.42
2017-12-11T10:20:27.724Z,978.4
2017-12-11T10:20:53.237Z,978.35
2017-12-11T10:21:18.719Z,978.37
2017-12-11T10:21:44.220Z,978.3
2017-12-11T10:22:09.674Z,978.28
2017-12-11T10:23:18.368Z,978.24
2017-12-11T10:23:43.856Z,978.19
2017-12-11T10:24:09.422Z,978.17
2017-12-11T10:24:34.871Z,978.21
2017-12-11T10:25:00.379Z,978.15
2017-12-11T10:25:25.910Z,978.16
2017-12-11T10:25:51.409Z,978.1
2017-12-11T10:26:16.913Z,978.08
2017-12-11T10:26:42.425Z,978.07
2017-12-11T10:27:07.928Z,978.01
2017-12-11T10:27:33.587Z,977.99
2017-12-11T10:27:58.937Z,977.92
2017-12-11T10:28:24.438Z,977.9
2017-12-11T10:28:49.920Z,977.87
2017-12-11T10:29:15.427Z,977.88
2017-12-11T10:29:40.895Z,977.81
2017-12-11T10:30:06.428Z,977.82
2017-12-11T10:30:31.903Z,977.85
2017-12-11T10:30:57.390Z,977.8
2017-12-11T10:31:22.926Z,977.72
2017-12-11T10:31:48.462Z,977.74
2017-12-11T10:33:02.226Z,977.81
2017-12-11T10:33:27.748Z,977.82
2017-12-11T10:33:53.224Z,977.75
2017-12-11T10:34:18.707Z,977.81
2017-12-11T10:34:44.189Z,977.86
2017-12-11T10:35:09.669Z,977.84
2017-12-11T10:35:35.192Z,977.84
2017-12-11T10:36:00.721Z,977.84
2017-12-11T10:36:26.209Z,977.81
2017-12-11T10:36:51.710Z,977.76
2017-12-11T10:37:17.153Z,977.68
2017-12-11T10:37:42.658Z,977.7
2017-12-11T10:38:08.160Z,977.62
2017-12-11T10:38:33.732Z,977.6
2017-12-11T10:38:59.275Z,977.59
2017-12-11T10:39:24.747Z,977.56
2017-12-11T10:39:50.254Z,977.61
2017-12-11T10:40:15.702Z,977.55
2017-12-11T10:40:41.200Z,977.55
2017-12-11T10:41:06.738Z,977.62
2017-12-11T10:41:32.232Z,977.6
2017-12-11T10:41:57.702Z,977.59
2017-12-11T10:43:01.343Z,977.48